Navy Annex, DC

5:21 PM EDT on August 30, 2014 (GMT -0400)
Capitol Hill, Washington, DC USA | Change Station
CLOSE
Current Station
Personal Weather Station
Location: Washington, DC
Elevation: 92 ft
Nearby Weather Stations

Elev 92 ft 38.89 °N, 76.99 °W | Updated 8 minutes ago

Overcast
Overcast
84.7 °F
Feels Like 93 °F
N
1.0
Wind Variable Wind from SSW

Today
High -- | Low -- °F
--% Chance of Precip.
Yesterday
High -- | Low -- °F
Precip. -- in
6:35 AM 7:41 PM
Waxing Crescent, 24% visible
Pressure 30.14 in
Visibility 10.0 miles
Clouds Overcast 4400 ft
Heat Index 93 °F
Dew Point 75 °F
Humidity 73%
Rainfall 0.00 in
Snow Depth Not available.
UV 1 out of 12
Pollen 9.50 out of 12
Air Quality Not available.
Flu Activity Not available.
METAR KDCA 302052Z 18007KT 10SM OVC044 29/21 A3014 RMK AO2 SLP206 T02940206 56018

More Conditions Fewer Conditions

Pressure 30.14 in
Visibility 10.0 miles
Clouds Overcast 4400 ft
Heat Index 93 °F
Dew Point 75 °F
Humidity 73%
Rainfall 0.00 in
Snow Depth Not available.
UV 1 out of 12
Pollen 9.50 out of 12
Air Quality Not available.
Flu Activity Not available.
METAR KDCA 302052Z 18007KT 10SM OVC044 29/21 A3014 RMK AO2 SLP206 T02940206 56018

More Conditions Fewer Conditions

10-Day Weather Forecast

Almanac

Astronomy

Aug. 30, 2014 Rise Set
Actual Time 6:35 AM EDT 7:41 PM EDT
Civil Twilight 6:07 AM EDT 8:08 PM EDT
Nautical Twilight 5:35 AM EDT 8:41 PM EDT
Astronomical Twilight 5:00 AM EDT 9:15 PM EDT
Moon 11:17 AM EDT 10:17 PM EDT
Length of Visible Light 14h 01m
Length of Day
13h 06m
Tomorrow will be 2m 25s shorter.
Waxing Crescent, 24% of the Moon is Illuminated
Today
Waxing Crescent
Sep 2
First Quarter
Sep 8
Full
Sep 15
Last Quarter
Sep 24
New

Today's Extremes

State Highs State Lows

Community

WunderPhotos

Upload Photos

1,748,635 photos uploaded!

WunderBlogs® & News

Nearby

Snow Depth

Station Depth Elevation
No new snow has been reported.

Earthquake Activity

City Distance Mag. Time & Date
No recent earthquake activity has been reported nearby.
Minimum magnitude displayed is 2.5.

Coastal Water Temperatures

Place Temperature
Washington, DC 79.0 °F
Baltimore, MD 80.1 °F
Solomons Island, MD 79.0 °F

Nearby Weather Stations